KGYH

Donaldson Field Airport

Greenville, South Carolina, USA
METAR KGYH 222047Z 20005KT 10SM CLR 18/02 A3025
Observed Flight Rules
Oct-22 @ 20:47 UTC (15 minutes ago) Visual Flight Rules
Wind Visibility Clouds
200° at 5 knots 10 miles
  • Clear skies
Temperatures Readings
Current 18°C / 64°F
Dewpoint 2°C / 36°F
Humidity 34%
Altimeter 30.25" Hg
Pressure 1024 hPa
Elevation 292
METAR KGYH 222047Z 20005KT 10SM CLR 18/02 A3025
Observed Flight Rules
Oct-22 @ 20:47 UTC
(15 minutes ago)
VFR
Wind Visibility
200° at 5 knots 10 miles
Clouds
  • Clear skies
Temperature Dewpoint
18°C / 64°F 2°C / 36°F
Humidity Altimeter Pressure
34% 30.25" Hg 1024 hPa